Airfield :
LOGIN :

Register | Disclaimer

   EN    FR    IT 

 










Legend :    VFR   Marginal VFR   IFR   Intensive IFR   Very Intensive IFR
Visi :
Ceiling :
>= 8 km
>= 3000ft
5 to 8 km
1000 to 3000 ft
1500m to 5 km
500 to 1000 ft
800 to 1500m
200 to 500 ft
< 800m
< 200 ft
Symbols :   Thunderstorms  Fog  Heavy snow  Heavy precipitations  Wind > 20 kt
SIGMETs :     Misc.  Thunderstorms  Icing  Turbulence  Mountain Waves  Volcanic Ashes






- Airport Elevation : 132 ft


EGXE - RAF Leeming

CURRENT METAR :
  • 141850Z 35012KT 9999 -RA FEW010 BKN026 OVC070 06/04 Q1006 BECMG 6000 RA BKN017 RMK BLU BECMG WHT

EXPIRED METARs :
  • 141820Z 36013KT 9999 FEW011 BKN026 OVC070 06/04 Q1006 BECMG 6000 RA BKN017 RMK BLU BECMG WHT
  • 141750Z 35013KT 9999 FEW017 BKN026 OVC070 06/04 Q1006 BECMG BKN017 RMK BLU BECMG WHT
  • 141719Z 36015G25KT 9999 FEW017 BKN026 OVC070 06/04 Q1005 NOSIG RMK BLU BLU
  • 141650Z 35012KT 9999 -RA FEW017 BKN026 OVC070 06/03 Q1005 BECMG BKN017 RMK BLU BECMG WHT
  • 141550Z 36013KT 9999 FEW025 OVC070 06/03 Q1005 BECMG BKN020 RMK BLU BECMG WHT

TAF COR TAF EGXE
Valid from the 14 at 15:00 until the 14 at 20:00 UTC


141529Z 1415/1420 02012KT 9999 FEW020 BKN045
TEMPO 1415/1419 02017G27KT
BECMG 1416/1419 6000 RA BKN020
TEMPO 1419/1420 3000 +RA BKN012



MET'MAP, your aeronautical weather chart ! - Copyright ORBIFLY December 2007 - Disclaimer

ORBIFLY MET'MAP TEAM :

Programming & Development : Alexandra Zaïnal
Concept & Development : Baudouin d'Aumeries
Co-Development & Prog : Marc-Olivier Méhu
Technical & hardware support : Manuel Goepfert

Contact : metmap@orbifly.com




SOURCES & CREDITS :

   NOAA